Hlavní strana
METAR-TAF:

METAR-TAF

Letiště :

Gibraltar, Gibraltar

Mezinárodní letiště Gibraltar

zeměpisná šířka: 36-09N, zeměpisná délka: 005-21W, výška: 5 m

Aktuální stav počasí

Zpráva byla vytvořena před 30 minutami, v 12:50 UTC
Východní vítr 10 kt
Teplota 19°C
Vlhkost vzduchu 73%
Tlak 1013 hPa
Viditelnost 10 km a více
Skoro jasno ve výšce 2000 ft
Polojasno ve výšce 25000 ft

METAR: LXGB 231250Z 10010KT 9999 FEW020 SCT250 19/14 Q1013 NOSIG

Čas: 15:20 (13:20 UTC)

Předpověď počasí

Zpráva byla vytvořena před 2 hodinami a 43 minutami, v 10:37 UTC
Předpověď platná od 23 v 12 UTC do 23 v 21 UTC
Východní vítr 6 kt
Viditelnost 10 km a více
Skoro jasno ve výšce 1300 ft
Pravděpodobnost 30%
od 23 v 20 UTC do 23 v 21 UTC
Viditelnost: 7000 m
zákal

TAF: LXGB 231037Z 2312/2321 09006KT 9999 FEW013 PROB30 2320/2321 7000 HZ

Stav a předpovědi počasí z více než 4 000 letišť (zprávy METAR a TAF).

Červené a žluté tečky na mapě představují dostupné meteorologické stanice.

Když kurzor umístíte na tečku, zobrazí se název stanice.

Pak kliknutím zobrazíte stav a předpověď počasí.

Chcete-li změnit mapu, kliknutím na zelené tlačítko se znaménkem +mapu přiblížíte, kliknutím na zelené tlačítko se znaménkem – mapu oddálíte a kliknutím na zelené šipky přejdete na sousední mapy.


METAR-TAF: